sensor_id;sensor_type;location;lat;lon;timestamp;P1;durP1;ratioP1;P2;durP2;ratioP2
59306;SDS011;47983;53.016;-2.260;2023-11-19T00:00:42;25.90;;;3.67;;
59306;SDS011;47983;53.016;-2.260;2023-11-19T00:03:20;30.95;;;4.43;;
59306;SDS011;47983;53.016;-2.260;2023-11-19T00:05:49;22.80;;;3.83;;
59306;SDS011;47983;53.016;-2.260;2023-11-19T00:08:18;22.60;;;4.43;;
59306;SDS011;47983;53.016;-2.260;2023-11-19T00:10:46;25.73;;;3.35;;
59306;SDS011;47983;53.016;-2.260;2023-11-19T00:13:14;22.90;;;3.78;;
59306;SDS011;47983;53.016;-2.260;2023-11-19T00:15:43;24.85;;;3.38;;
59306;SDS011;47983;53.016;-2.260;2023-11-19T00:18:12;30.50;;;3.92;;
59306;SDS011;47983;53.016;-2.260;2023-11-19T00:20:41;18.53;;;2.70;;
59306;SDS011;47983;53.016;-2.260;2023-11-19T00:23:12;24.27;;;3.55;;
59306;SDS011;47983;53.016;-2.260;2023-11-19T00:25:40;31.98;;;3.38;;
59306;SDS011;47983;53.016;-2.260;2023-11-19T00:28:08;26.70;;;4.03;;
59306;SDS011;47983;53.016;-2.260;2023-11-19T00:30:36;33.63;;;4.10;;
59306;SDS011;47983;53.016;-2.260;2023-11-19T00:33:04;33.17;;;3.85;;
59306;SDS011;47983;53.016;-2.260;2023-11-19T00:35:33;27.08;;;3.75;;
59306;SDS011;47983;53.016;-2.260;2023-11-19T00:38:01;28.70;;;4.60;;
59306;SDS011;47983;53.016;-2.260;2023-11-19T00:40:31;23.80;;;3.53;;
59306;SDS011;47983;53.016;-2.260;2023-11-19T00:42:59;22.65;;;4.07;;
59306;SDS011;47983;53.016;-2.260;2023-11-19T00:45:27;28.45;;;4.10;;
59306;SDS011;47983;53.016;-2.260;2023-11-19T00:47:59;25.00;;;3.08;;
59306;SDS011;47983;53.016;-2.260;2023-11-19T00:50:27;18.15;;;3.50;;
59306;SDS011;47983;53.016;-2.260;2023-11-19T00:52:56;22.90;;;3.85;;
59306;SDS011;47983;53.016;-2.260;2023-11-19T00:55:24;22.38;;;3.47;;
59306;SDS011;47983;53.016;-2.260;2023-11-19T00:57:52;26.88;;;3.88;;
59306;SDS011;47983;53.016;-2.260;2023-11-19T01:00:21;26.50;;;3.45;;
59306;SDS011;47983;53.016;-2.260;2023-11-19T01:02:51;26.58;;;4.13;;
59306;SDS011;47983;53.016;-2.260;2023-11-19T01:05:22;40.55;;;4.13;;
59306;SDS011;47983;53.016;-2.260;2023-11-19T01:07:51;21.60;;;4.07;;
59306;SDS011;47983;53.016;-2.260;2023-11-19T01:10:22;23.35;;;3.25;;
59306;SDS011;47983;53.016;-2.260;2023-11-19T01:12:51;26.77;;;3.90;;
59306;SDS011;47983;53.016;-2.260;2023-11-19T01:15:21;26.10;;;3.60;;
59306;SDS011;47983;53.016;-2.260;2023-11-19T01:17:50;29.20;;;3.00;;
59306;SDS011;47983;53.016;-2.260;2023-11-19T01:20:20;24.75;;;3.17;;
59306;SDS011;47983;53.016;-2.260;2023-11-19T01:22:49;27.90;;;2.63;;
59306;SDS011;47983;53.016;-2.260;2023-11-19T01:25:17;20.60;;;2.25;;
59306;SDS011;47983;53.016;-2.260;2023-11-19T01:27:46;22.08;;;3.20;;
59306;SDS011;47983;53.016;-2.260;2023-11-19T01:30:14;30.75;;;5.07;;
59306;SDS011;47983;53.016;-2.260;2023-11-19T01:32:42;16.05;;;3.20;;
59306;SDS011;47983;53.016;-2.260;2023-11-19T01:35:11;25.45;;;3.42;;
59306;SDS011;47983;53.016;-2.260;2023-11-19T01:37:39;26.05;;;2.35;;
59306;SDS011;47983;53.016;-2.260;2023-11-19T01:40:07;24.73;;;3.58;;
59306;SDS011;47983;53.016;-2.260;2023-11-19T01:42:39;17.10;;;2.15;;
59306;SDS011;47983;53.016;-2.260;2023-11-19T01:45:08;21.33;;;3.33;;
59306;SDS011;47983;53.016;-2.260;2023-11-19T01:47:44;25.33;;;2.92;;
59306;SDS011;47983;53.016;-2.260;2023-11-19T01:50:12;25.15;;;4.18;;
59306;SDS011;47983;53.016;-2.260;2023-11-19T01:52:41;21.90;;;3.13;;
59306;SDS011;47983;53.016;-2.260;2023-11-19T01:55:13;14.88;;;2.47;;
59306;SDS011;47983;53.016;-2.260;2023-11-19T01:57:42;20.85;;;3.25;;
59306;SDS011;47983;53.016;-2.260;2023-11-19T02:00:11;24.80;;;2.67;;
59306;SDS011;47983;53.016;-2.260;2023-11-19T02:02:40;26.25;;;3.22;;
59306;SDS011;47983;53.016;-2.260;2023-11-19T02:05:10;26.60;;;3.60;;
59306;SDS011;47983;53.016;-2.260;2023-11-19T02:07:40;18.40;;;3.60;;
59306;SDS011;47983;53.016;-2.260;2023-11-19T02:10:08;19.85;;;3.22;;
59306;SDS011;47983;53.016;-2.260;2023-11-19T02:12:41;24.45;;;2.85;;
59306;SDS011;47983;53.016;-2.260;2023-11-19T02:15:10;20.80;;;3.47;;
59306;SDS011;47983;53.016;-2.260;2023-11-19T02:17:39;21.90;;;2.53;;
59306;SDS011;47983;53.016;-2.260;2023-11-19T02:20:07;16.10;;;2.42;;
59306;SDS011;47983;53.016;-2.260;2023-11-19T02:22:39;23.13;;;3.30;;
59306;SDS011;47983;53.016;-2.260;2023-11-19T02:25:07;22.85;;;4.13;;
59306;SDS011;47983;53.016;-2.260;2023-11-19T02:30:25;21.90;;;3.45;;
59306;SDS011;47983;53.016;-2.260;2023-11-19T02:32:57;22.90;;;3.17;;
59306;SDS011;47983;53.016;-2.260;2023-11-19T02:35:33;22.65;;;3.63;;
59306;SDS011;47983;53.016;-2.260;2023-11-19T02:38:01;22.67;;;3.20;;
59306;SDS011;47983;53.016;-2.260;2023-11-19T02:40:32;24.90;;;3.28;;
59306;SDS011;47983;53.016;-2.260;2023-11-19T02:43:01;20.15;;;2.40;;
59306;SDS011;47983;53.016;-2.260;2023-11-19T02:45:29;19.40;;;3.25;;
59306;SDS011;47983;53.016;-2.260;2023-11-19T02:47:58;21.53;;;2.83;;
59306;SDS011;47983;53.016;-2.260;2023-11-19T02:50:29;25.20;;;3.20;;
59306;SDS011;47983;53.016;-2.260;2023-11-19T02:52:58;15.55;;;2.90;;
59306;SDS011;47983;53.016;-2.260;2023-11-19T02:55:26;15.25;;;2.78;;
59306;SDS011;47983;53.016;-2.260;2023-11-19T02:57:58;23.20;;;3.15;;
59306;SDS011;47983;53.016;-2.260;2023-11-19T03:00:27;29.85;;;4.32;;
59306;SDS011;47983;53.016;-2.260;2023-11-19T03:03:05;21.65;;;3.38;;
59306;SDS011;47983;53.016;-2.260;2023-11-19T03:05:46;19.42;;;2.38;;
59306;SDS011;47983;53.016;-2.260;2023-11-19T03:08:15;22.25;;;3.20;;
59306;SDS011;47983;53.016;-2.260;2023-11-19T03:10:46;21.58;;;2.92;;
59306;SDS011;47983;53.016;-2.260;2023-11-19T03:13:14;22.40;;;2.20;;
59306;SDS011;47983;53.016;-2.260;2023-11-19T03:15:43;20.95;;;2.53;;
59306;SDS011;47983;53.016;-2.260;2023-11-19T03:18:12;16.08;;;2.35;;
59306;SDS011;47983;53.016;-2.260;2023-11-19T03:20:41;21.37;;;2.40;;
59306;SDS011;47983;53.016;-2.260;2023-11-19T03:23:09;26.02;;;3.13;;
59306;SDS011;47983;53.016;-2.260;2023-11-19T03:25:38;20.50;;;3.55;;
59306;SDS011;47983;53.016;-2.260;2023-11-19T03:28:06;20.77;;;2.53;;
59306;SDS011;47983;53.016;-2.260;2023-11-19T03:30:34;22.27;;;4.20;;
59306;SDS011;47983;53.016;-2.260;2023-11-19T03:33:02;24.88;;;3.33;;
59306;SDS011;47983;53.016;-2.260;2023-11-19T03:35:31;29.20;;;3.92;;
59306;SDS011;47983;53.016;-2.260;2023-11-19T03:38:00;17.65;;;3.15;;
59306;SDS011;47983;53.016;-2.260;2023-11-19T03:40:28;32.75;;;3.58;;
59306;SDS011;47983;53.016;-2.260;2023-11-19T03:42:57;29.25;;;3.42;;
59306;SDS011;47983;53.016;-2.260;2023-11-19T03:45:29;27.30;;;3.30;;
59306;SDS011;47983;53.016;-2.260;2023-11-19T03:47:57;18.70;;;2.90;;
59306;SDS011;47983;53.016;-2.260;2023-11-19T03:50:25;24.02;;;3.47;;
59306;SDS011;47983;53.016;-2.260;2023-11-19T03:52:53;25.83;;;2.78;;
59306;SDS011;47983;53.016;-2.260;2023-11-19T03:55:21;20.50;;;2.05;;
59306;SDS011;47983;53.016;-2.260;2023-11-19T03:57:50;9.20;;;1.60;;
59306;SDS011;47983;53.016;-2.260;2023-11-19T04:00:18;20.98;;;2.15;;
59306;SDS011;47983;53.016;-2.260;2023-11-19T04:05:17;19.70;;;2.10;;
59306;SDS011;47983;53.016;-2.260;2023-11-19T04:07:46;20.48;;;2.38;;
59306;SDS011;47983;53.016;-2.260;2023-11-19T04:10:14;17.73;;;2.05;;
59306;SDS011;47983;53.016;-2.260;2023-11-19T04:12:44;15.90;;;2.22;;
59306;SDS011;47983;53.016;-2.260;2023-11-19T04:15:12;19.67;;;2.58;;
59306;SDS011;47983;53.016;-2.260;2023-11-19T04:17:42;18.38;;;2.10;;
59306;SDS011;47983;53.016;-2.260;2023-11-19T04:20:10;18.45;;;2.53;;
59306;SDS011;47983;53.016;-2.260;2023-11-19T04:22:42;24.85;;;2.47;;
59306;SDS011;47983;53.016;-2.260;2023-11-19T04:25:10;23.77;;;3.38;;
59306;SDS011;47983;53.016;-2.260;2023-11-19T04:27:38;32.25;;;2.70;;
59306;SDS011;47983;53.016;-2.260;2023-11-19T04:30:09;35.00;;;3.08;;
59306;SDS011;47983;53.016;-2.260;2023-11-19T04:32:38;30.73;;;3.88;;
59306;SDS011;47983;53.016;-2.260;2023-11-19T04:35:07;28.02;;;3.28;;
59306;SDS011;47983;53.016;-2.260;2023-11-19T04:37:36;29.95;;;3.38;;
59306;SDS011;47983;53.016;-2.260;2023-11-19T04:40:05;27.23;;;2.60;;
59306;SDS011;47983;53.016;-2.260;2023-11-19T04:42:34;20.17;;;3.15;;
59306;SDS011;47983;53.016;-2.260;2023-11-19T04:45:02;30.27;;;3.47;;
59306;SDS011;47983;53.016;-2.260;2023-11-19T04:47:33;38.85;;;3.92;;
59306;SDS011;47983;53.016;-2.260;2023-11-19T04:50:02;32.28;;;3.97;;
59306;SDS011;47983;53.016;-2.260;2023-11-19T04:52:30;28.50;;;4.28;;
59306;SDS011;47983;53.016;-2.260;2023-11-19T04:54:58;31.20;;;3.67;;
59306;SDS011;47983;53.016;-2.260;2023-11-19T04:57:27;34.72;;;3.65;;
59306;SDS011;47983;53.016;-2.260;2023-11-19T04:59:55;36.42;;;4.47;;
59306;SDS011;47983;53.016;-2.260;2023-11-19T05:02:23;35.55;;;4.55;;
59306;SDS011;47983;53.016;-2.260;2023-11-19T05:04:51;22.75;;;3.00;;
59306;SDS011;47983;53.016;-2.260;2023-11-19T05:07:19;27.55;;;4.95;;
59306;SDS011;47983;53.016;-2.260;2023-11-19T05:09:48;33.67;;;3.90;;
59306;SDS011;47983;53.016;-2.260;2023-11-19T05:12:16;34.45;;;3.53;;
59306;SDS011;47983;53.016;-2.260;2023-11-19T05:14:44;31.15;;;4.43;;
59306;SDS011;47983;53.016;-2.260;2023-11-19T05:17:17;24.15;;;2.95;;
59306;SDS011;47983;53.016;-2.260;2023-11-19T05:19:46;31.00;;;3.20;;
59306;SDS011;47983;53.016;-2.260;2023-11-19T05:22:16;26.55;;;3.35;;
59306;SDS011;47983;53.016;-2.260;2023-11-19T05:24:45;29.27;;;2.47;;
59306;SDS011;47983;53.016;-2.260;2023-11-19T05:27:13;24.42;;;3.45;;
59306;SDS011;47983;53.016;-2.260;2023-11-19T05:29:41;23.67;;;3.08;;
59306;SDS011;47983;53.016;-2.260;2023-11-19T05:32:11;29.63;;;2.97;;
59306;SDS011;47983;53.016;-2.260;2023-11-19T05:34:39;18.88;;;3.13;;
59306;SDS011;47983;53.016;-2.260;2023-11-19T05:37:10;21.38;;;2.60;;
59306;SDS011;47983;53.016;-2.260;2023-11-19T05:39:38;33.83;;;2.92;;
59306;SDS011;47983;53.016;-2.260;2023-11-19T05:42:06;20.17;;;2.70;;
59306;SDS011;47983;53.016;-2.260;2023-11-19T05:44:34;16.90;;;2.42;;
59306;SDS011;47983;53.016;-2.260;2023-11-19T05:47:05;23.33;;;2.42;;
59306;SDS011;47983;53.016;-2.260;2023-11-19T05:49:34;14.75;;;2.47;;
59306;SDS011;47983;53.016;-2.260;2023-11-19T05:52:02;16.40;;;1.92;;
59306;SDS011;47983;53.016;-2.260;2023-11-19T05:54:30;19.85;;;2.25;;
59306;SDS011;47983;53.016;-2.260;2023-11-19T05:57:00;20.15;;;2.13;;
59306;SDS011;47983;53.016;-2.260;2023-11-19T05:59:29;21.52;;;4.10;;
59306;SDS011;47983;53.016;-2.260;2023-11-19T06:01:57;16.00;;;2.45;;
59306;SDS011;47983;53.016;-2.260;2023-11-19T06:04:25;22.95;;;3.55;;
59306;SDS011;47983;53.016;-2.260;2023-11-19T06:06:54;29.27;;;5.07;;
59306;SDS011;47983;53.016;-2.260;2023-11-19T06:09:22;13.45;;;2.20;;
59306;SDS011;47983;53.016;-2.260;2023-11-19T06:11:52;22.02;;;3.00;;
59306;SDS011;47983;53.016;-2.260;2023-11-19T06:14:20;29.05;;;3.33;;
59306;SDS011;47983;53.016;-2.260;2023-11-19T06:16:48;21.92;;;2.47;;
59306;SDS011;47983;53.016;-2.260;2023-11-19T06:19:16;20.73;;;2.42;;
59306;SDS011;47983;53.016;-2.260;2023-11-19T06:21:48;22.83;;;3.00;;
59306;SDS011;47983;53.016;-2.260;2023-11-19T06:24:17;24.48;;;2.58;;
59306;SDS011;47983;53.016;-2.260;2023-11-19T06:26:45;17.05;;;2.90;;
59306;SDS011;47983;53.016;-2.260;2023-11-19T06:29:13;15.13;;;2.53;;
59306;SDS011;47983;53.016;-2.260;2023-11-19T06:31:46;16.02;;;1.92;;
59306;SDS011;47983;53.016;-2.260;2023-11-19T06:36:43;13.32;;;2.40;;
59306;SDS011;47983;53.016;-2.260;2023-11-19T06:39:11;19.77;;;3.22;;
59306;SDS011;47983;53.016;-2.260;2023-11-19T06:41:43;13.98;;;2.38;;
59306;SDS011;47983;53.016;-2.260;2023-11-19T06:44:12;23.65;;;2.58;;
59306;SDS011;47983;53.016;-2.260;2023-11-19T06:46:41;21.83;;;2.83;;
59306;SDS011;47983;53.016;-2.260;2023-11-19T06:49:09;13.50;;;1.55;;
59306;SDS011;47983;53.016;-2.260;2023-11-19T06:51:41;19.48;;;2.22;;
59306;SDS011;47983;53.016;-2.260;2023-11-19T06:54:11;19.33;;;2.63;;
59306;SDS011;47983;53.016;-2.260;2023-11-19T06:56:39;23.13;;;3.70;;
59306;SDS011;47983;53.016;-2.260;2023-11-19T06:59:08;21.90;;;2.60;;
59306;SDS011;47983;53.016;-2.260;2023-11-19T07:01:37;22.83;;;3.75;;
59306;SDS011;47983;53.016;-2.260;2023-11-19T07:04:06;27.10;;;2.47;;
59306;SDS011;47983;53.016;-2.260;2023-11-19T07:06:36;23.13;;;2.40;;
59306;SDS011;47983;53.016;-2.260;2023-11-19T07:09:04;25.48;;;2.58;;
59306;SDS011;47983;53.016;-2.260;2023-11-19T07:11:39;23.35;;;2.65;;
59306;SDS011;47983;53.016;-2.260;2023-11-19T07:14:11;21.25;;;3.28;;
59306;SDS011;47983;53.016;-2.260;2023-11-19T07:16:39;21.20;;;3.47;;
59306;SDS011;47983;53.016;-2.260;2023-11-19T07:19:07;18.58;;;2.35;;
59306;SDS011;47983;53.016;-2.260;2023-11-19T07:21:35;21.42;;;3.13;;
59306;SDS011;47983;53.016;-2.260;2023-11-19T07:24:06;15.15;;;2.40;;
59306;SDS011;47983;53.016;-2.260;2023-11-19T07:26:35;17.60;;;2.00;;
59306;SDS011;47983;53.016;-2.260;2023-11-19T07:29:04;24.52;;;3.40;;
59306;SDS011;47983;53.016;-2.260;2023-11-19T07:31:35;24.35;;;3.50;;
59306;SDS011;47983;53.016;-2.260;2023-11-19T07:36:34;20.85;;;3.25;;
59306;SDS011;47983;53.016;-2.260;2023-11-19T07:39:03;19.30;;;2.88;;
59306;SDS011;47983;53.016;-2.260;2023-11-19T07:41:32;19.95;;;3.63;;
59306;SDS011;47983;53.016;-2.260;2023-11-19T07:44:05;24.50;;;3.72;;
59306;SDS011;47983;53.016;-2.260;2023-11-19T07:46:33;26.27;;;2.70;;
59306;SDS011;47983;53.016;-2.260;2023-11-19T07:49:01;27.67;;;3.30;;
59306;SDS011;47983;53.016;-2.260;2023-11-19T07:51:30;22.17;;;3.60;;
59306;SDS011;47983;53.016;-2.260;2023-11-19T07:53:57;20.65;;;2.33;;
59306;SDS011;47983;53.016;-2.260;2023-11-19T07:56:26;16.65;;;2.97;;
59306;SDS011;47983;53.016;-2.260;2023-11-19T07:58:54;19.15;;;2.75;;
59306;SDS011;47983;53.016;-2.260;2023-11-19T08:01:22;15.88;;;2.20;;
59306;SDS011;47983;53.016;-2.260;2023-11-19T08:03:50;20.75;;;2.50;;
59306;SDS011;47983;53.016;-2.260;2023-11-19T08:06:22;19.80;;;2.90;;
59306;SDS011;47983;53.016;-2.260;2023-11-19T08:08:50;21.60;;;3.25;;
59306;SDS011;47983;53.016;-2.260;2023-11-19T08:11:19;23.65;;;2.67;;
59306;SDS011;47983;53.016;-2.260;2023-11-19T08:13:47;20.42;;;2.33;;
59306;SDS011;47983;53.016;-2.260;2023-11-19T08:16:16;20.13;;;2.33;;
59306;SDS011;47983;53.016;-2.260;2023-11-19T08:18:43;18.95;;;2.35;;
59306;SDS011;47983;53.016;-2.260;2023-11-19T08:21:13;26.88;;;3.35;;
59306;SDS011;47983;53.016;-2.260;2023-11-19T08:23:42;22.85;;;3.45;;
59306;SDS011;47983;53.016;-2.260;2023-11-19T08:26:10;23.52;;;2.58;;
59306;SDS011;47983;53.016;-2.260;2023-11-19T08:28:38;21.77;;;2.53;;
59306;SDS011;47983;53.016;-2.260;2023-11-19T08:31:06;32.00;;;2.85;;
59306;SDS011;47983;53.016;-2.260;2023-11-19T08:33:36;20.70;;;2.37;;
59306;SDS011;47983;53.016;-2.260;2023-11-19T08:36:04;16.92;;;2.13;;
59306;SDS011;47983;53.016;-2.260;2023-11-19T08:38:32;18.15;;;2.33;;
59306;SDS011;47983;53.016;-2.260;2023-11-19T08:41:00;14.13;;;2.42;;
59306;SDS011;47983;53.016;-2.260;2023-11-19T08:43:29;14.40;;;1.80;;
59306;SDS011;47983;53.016;-2.260;2023-11-19T08:45:59;14.88;;;2.22;;
59306;SDS011;47983;53.016;-2.260;2023-11-19T08:48:27;12.10;;;1.50;;
59306;SDS011;47983;53.016;-2.260;2023-11-19T08:50:55;5.63;;;1.25;;
59306;SDS011;47983;53.016;-2.260;2023-11-19T08:53:23;8.77;;;0.93;;
59306;SDS011;47983;53.016;-2.260;2023-11-19T08:55:51;12.40;;;1.17;;
59306;SDS011;47983;53.016;-2.260;2023-11-19T08:58:19;3.47;;;0.65;;
59306;SDS011;47983;53.016;-2.260;2023-11-19T09:00:47;6.93;;;0.85;;
59306;SDS011;47983;53.016;-2.260;2023-11-19T09:03:15;5.72;;;0.80;;
59306;SDS011;47983;53.016;-2.260;2023-11-19T09:05:43;4.65;;;0.90;;
59306;SDS011;47983;53.016;-2.260;2023-11-19T09:08:12;3.00;;;0.82;;
59306;SDS011;47983;53.016;-2.260;2023-11-19T09:10:39;5.75;;;1.00;;
59306;SDS011;47983;53.016;-2.260;2023-11-19T09:13:07;8.40;;;1.52;;
59306;SDS011;47983;53.016;-2.260;2023-11-19T09:15:35;10.52;;;1.05;;
59306;SDS011;47983;53.016;-2.260;2023-11-19T09:18:03;9.75;;;1.10;;
59306;SDS011;47983;53.016;-2.260;2023-11-19T09:20:32;12.35;;;1.50;;
59306;SDS011;47983;53.016;-2.260;2023-11-19T09:23:05;7.68;;;1.15;;
59306;SDS011;47983;53.016;-2.260;2023-11-19T09:25:34;11.48;;;1.13;;
59306;SDS011;47983;53.016;-2.260;2023-11-19T09:28:05;9.80;;;1.00;;
59306;SDS011;47983;53.016;-2.260;2023-11-19T09:30:33;10.73;;;1.40;;
59306;SDS011;47983;53.016;-2.260;2023-11-19T09:33:01;6.95;;;1.60;;
59306;SDS011;47983;53.016;-2.260;2023-11-19T09:35:30;16.30;;;1.60;;
59306;SDS011;47983;53.016;-2.260;2023-11-19T09:37:58;12.20;;;1.05;;
59306;SDS011;47983;53.016;-2.260;2023-11-19T09:40:28;12.38;;;1.48;;
59306;SDS011;47983;53.016;-2.260;2023-11-19T09:45:27;11.60;;;1.65;;
59306;SDS011;47983;53.016;-2.260;2023-11-19T09:47:56;7.70;;;1.30;;
59306;SDS011;47983;53.016;-2.260;2023-11-19T09:50:26;7.20;;;1.67;;
59306;SDS011;47983;53.016;-2.260;2023-11-19T09:52:54;8.10;;;1.00;;
59306;SDS011;47983;53.016;-2.260;2023-11-19T09:55:22;7.75;;;2.13;;
59306;SDS011;47983;53.016;-2.260;2023-11-19T09:57:49;9.60;;;1.42;;
59306;SDS011;47983;53.016;-2.260;2023-11-19T10:02:48;7.03;;;1.77;;
59306;SDS011;47983;53.016;-2.260;2023-11-19T10:05:17;8.48;;;1.20;;
59306;SDS011;47983;53.016;-2.260;2023-11-19T10:07:48;9.93;;;1.25;;
59306;SDS011;47983;53.016;-2.260;2023-11-19T10:10:16;8.45;;;1.15;;
59306;SDS011;47983;53.016;-2.260;2023-11-19T10:12:46;6.38;;;0.70;;
59306;SDS011;47983;53.016;-2.260;2023-11-19T10:15:19;5.60;;;0.77;;
59306;SDS011;47983;53.016;-2.260;2023-11-19T10:18:01;4.65;;;0.63;;
59306;SDS011;47983;53.016;-2.260;2023-11-19T10:20:29;3.72;;;0.60;;
59306;SDS011;47983;53.016;-2.260;2023-11-19T10:23:02;2.35;;;0.40;;
59306;SDS011;47983;53.016;-2.260;2023-11-19T10:25:30;2.60;;;0.68;;
59306;SDS011;47983;53.016;-2.260;2023-11-19T10:27:59;2.97;;;0.50;;
59306;SDS011;47983;53.016;-2.260;2023-11-19T10:30:28;3.10;;;0.38;;
59306;SDS011;47983;53.016;-2.260;2023-11-19T10:33:07;2.95;;;0.35;;
59306;SDS011;47983;53.016;-2.260;2023-11-19T10:35:50;3.42;;;0.50;;
59306;SDS011;47983;53.016;-2.260;2023-11-19T10:38:29;3.28;;;0.40;;
59306;SDS011;47983;53.016;-2.260;2023-11-19T10:40:57;3.05;;;0.38;;
59306;SDS011;47983;53.016;-2.260;2023-11-19T10:43:26;3.92;;;0.57;;
59306;SDS011;47983;53.016;-2.260;2023-11-19T10:46:08;2.40;;;0.40;;
59306;SDS011;47983;53.016;-2.260;2023-11-19T10:48:38;1.58;;;0.30;;
59306;SDS011;47983;53.016;-2.260;2023-11-19T10:51:07;0.93;;;0.17;;
59306;SDS011;47983;53.016;-2.260;2023-11-19T10:53:35;1.30;;;0.30;;
59306;SDS011;47983;53.016;-2.260;2023-11-19T10:56:06;1.65;;;0.20;;
59306;SDS011;47983;53.016;-2.260;2023-11-19T10:58:39;1.80;;;0.10;;
59306;SDS011;47983;53.016;-2.260;2023-11-19T11:01:19;1.73;;;0.20;;
59306;SDS011;47983;53.016;-2.260;2023-11-19T11:03:49;2.20;;;0.40;;
59306;SDS011;47983;53.016;-2.260;2023-11-19T11:06:21;2.50;;;0.20;;
59306;SDS011;47983;53.016;-2.260;2023-11-19T11:08:50;0.95;;;0.20;;
59306;SDS011;47983;53.016;-2.260;2023-11-19T11:11:18;3.33;;;0.10;;
59306;SDS011;47983;53.016;-2.260;2023-11-19T11:13:53;1.55;;;0.50;;
59306;SDS011;47983;53.016;-2.260;2023-11-19T11:16:24;0.50;;;0.30;;
59306;SDS011;47983;53.016;-2.260;2023-11-19T11:18:53;1.63;;;0.13;;
59306;SDS011;47983;53.016;-2.260;2023-11-19T11:21:22;0.60;;;0.15;;
59306;SDS011;47983;53.016;-2.260;2023-11-19T11:27:23;4.95;;;0.30;;
59306;SDS011;47983;53.016;-2.260;2023-11-19T11:30:03;0.80;;;0.10;;
59306;SDS011;47983;53.016;-2.260;2023-11-19T11:33:18;0.15;;;0.03;;
59306;SDS011;47983;53.016;-2.260;2023-11-19T11:36:00;1.85;;;0.20;;
59306;SDS011;47983;53.016;-2.260;2023-11-19T11:38:41;1.70;;;0.10;;
59306;SDS011;47983;53.016;-2.260;2023-11-19T11:41:16;0.40;;;0.20;;
59306;SDS011;47983;53.016;-2.260;2023-11-19T11:43:48;0.80;;;0.20;;
59306;SDS011;47983;53.016;-2.260;2023-11-19T11:49:05;0.50;;;0.15;;
59306;SDS011;47983;53.016;-2.260;2023-11-19T12:02:12;0.45;;;0.20;;
59306;SDS011;47983;53.016;-2.260;2023-11-19T12:04:48;2.08;;;0.40;;
59306;SDS011;47983;53.016;-2.260;2023-11-19T12:07:19;3.40;;;0.38;;
59306;SDS011;47983;53.016;-2.260;2023-11-19T12:09:53;2.22;;;0.30;;
59306;SDS011;47983;53.016;-2.260;2023-11-19T12:12:35;2.70;;;0.28;;
59306;SDS011;47983;53.016;-2.260;2023-11-19T12:15:08;0.28;;;0.20;;
59306;SDS011;47983;53.016;-2.260;2023-11-19T12:17:43;1.88;;;0.20;;
59306;SDS011;47983;53.016;-2.260;2023-11-19T12:20:18;2.10;;;0.20;;
59306;SDS011;47983;53.016;-2.260;2023-11-19T12:22:49;1.48;;;0.20;;
59306;SDS011;47983;53.016;-2.260;2023-11-19T12:25:18;0.30;;;0.10;;
59306;SDS011;47983;53.016;-2.260;2023-11-19T12:27:51;0.45;;;0.20;;
59306;SDS011;47983;53.016;-2.260;2023-11-19T12:30:23;2.38;;;0.20;;
59306;SDS011;47983;53.016;-2.260;2023-11-19T12:32:53;0.10;;;0.10;;
59306;SDS011;47983;53.016;-2.260;2023-11-19T12:35:22;2.28;;;0.30;;
59306;SDS011;47983;53.016;-2.260;2023-11-19T12:37:51;1.90;;;0.10;;
59306;SDS011;47983;53.016;-2.260;2023-11-19T12:40:23;2.25;;;0.55;;
59306;SDS011;47983;53.016;-2.260;2023-11-19T12:42:53;0.10;;;0.10;;
59306;SDS011;47983;53.016;-2.260;2023-11-19T12:45:24;0.10;;;0.10;;
59306;SDS011;47983;53.016;-2.260;2023-11-19T12:48:05;0.75;;;0.10;;
59306;SDS011;47983;53.016;-2.260;2023-11-19T12:50:55;0.43;;;0.17;;
59306;SDS011;47983;53.016;-2.260;2023-11-19T12:53:25;0.57;;;0.38;;
59306;SDS011;47983;53.016;-2.260;2023-11-19T12:55:54;8.98;;;0.32;;
59306;SDS011;47983;53.016;-2.260;2023-11-19T12:58:29;1.80;;;0.20;;
59306;SDS011;47983;53.016;-2.260;2023-11-19T13:01:02;0.82;;;0.30;;
59306;SDS011;47983;53.016;-2.260;2023-11-19T13:03:33;1.50;;;0.30;;
59306;SDS011;47983;53.016;-2.260;2023-11-19T13:06:03;3.35;;;0.22;;
59306;SDS011;47983;53.016;-2.260;2023-11-19T13:11:08;1.30;;;0.30;;
59306;SDS011;47983;53.016;-2.260;2023-11-19T13:13:54;1.55;;;0.30;;
59306;SDS011;47983;53.016;-2.260;2023-11-19T13:16:23;3.67;;;0.80;;
59306;SDS011;47983;53.016;-2.260;2023-11-19T13:18:51;0.85;;;0.20;;
59306;SDS011;47983;53.016;-2.260;2023-11-19T13:21:19;3.25;;;0.57;;
59306;SDS011;47983;53.016;-2.260;2023-11-19T13:23:47;3.65;;;0.65;;
59306;SDS011;47983;53.016;-2.260;2023-11-19T13:26:15;4.03;;;0.60;;
59306;SDS011;47983;53.016;-2.260;2023-11-19T13:28:43;5.22;;;0.40;;
59306;SDS011;47983;53.016;-2.260;2023-11-19T13:31:11;1.73;;;0.50;;
59306;SDS011;47983;53.016;-2.260;2023-11-19T13:33:40;4.47;;;0.75;;
59306;SDS011;47983;53.016;-2.260;2023-11-19T13:36:09;6.80;;;0.85;;
59306;SDS011;47983;53.016;-2.260;2023-11-19T13:38:42;6.93;;;1.80;;
59306;SDS011;47983;53.016;-2.260;2023-11-19T13:41:11;9.40;;;0.93;;
59306;SDS011;47983;53.016;-2.260;2023-11-19T13:43:41;6.38;;;0.98;;
59306;SDS011;47983;53.016;-2.260;2023-11-19T13:46:09;4.00;;;0.90;;
59306;SDS011;47983;53.016;-2.260;2023-11-19T13:48:38;4.10;;;0.80;;
59306;SDS011;47983;53.016;-2.260;2023-11-19T13:51:06;5.65;;;0.80;;
59306;SDS011;47983;53.016;-2.260;2023-11-19T13:53:35;4.75;;;0.63;;
59306;SDS011;47983;53.016;-2.260;2023-11-19T13:56:06;3.55;;;0.60;;
59306;SDS011;47983;53.016;-2.260;2023-11-19T13:58:35;4.32;;;0.63;;
59306;SDS011;47983;53.016;-2.260;2023-11-19T14:01:04;5.88;;;1.08;;
59306;SDS011;47983;53.016;-2.260;2023-11-19T14:03:33;5.28;;;0.73;;
59306;SDS011;47983;53.016;-2.260;2023-11-19T14:06:01;4.70;;;0.70;;
59306;SDS011;47983;53.016;-2.260;2023-11-19T14:08:30;5.15;;;0.98;;
59306;SDS011;47983;53.016;-2.260;2023-11-19T14:10:57;4.95;;;0.82;;
59306;SDS011;47983;53.016;-2.260;2023-11-19T14:13:26;5.20;;;0.57;;
59306;SDS011;47983;53.016;-2.260;2023-11-19T14:15:54;7.07;;;0.88;;
59306;SDS011;47983;53.016;-2.260;2023-11-19T14:18:23;7.30;;;0.85;;
59306;SDS011;47983;53.016;-2.260;2023-11-19T14:20:51;5.90;;;1.00;;
59306;SDS011;47983;53.016;-2.260;2023-11-19T14:23:19;6.22;;;1.20;;
59306;SDS011;47983;53.016;-2.260;2023-11-19T14:25:47;4.68;;;0.70;;
59306;SDS011;47983;53.016;-2.260;2023-11-19T14:28:18;4.03;;;0.90;;
59306;SDS011;47983;53.016;-2.260;2023-11-19T14:30:46;4.05;;;0.95;;
59306;SDS011;47983;53.016;-2.260;2023-11-19T14:33:21;7.00;;;1.23;;
59306;SDS011;47983;53.016;-2.260;2023-11-19T14:35:49;4.63;;;0.70;;
59306;SDS011;47983;53.016;-2.260;2023-11-19T14:38:17;6.28;;;1.05;;
59306;SDS011;47983;53.016;-2.260;2023-11-19T14:40:44;6.90;;;0.85;;
59306;SDS011;47983;53.016;-2.260;2023-11-19T14:43:12;9.57;;;1.00;;
59306;SDS011;47983;53.016;-2.260;2023-11-19T14:48:16;4.65;;;1.00;;
59306;SDS011;47983;53.016;-2.260;2023-11-19T14:50:45;3.80;;;0.80;;
59306;SDS011;47983;53.016;-2.260;2023-11-19T14:53:13;5.25;;;0.88;;
59306;SDS011;47983;53.016;-2.260;2023-11-19T14:55:41;4.25;;;0.70;;
59306;SDS011;47983;53.016;-2.260;2023-11-19T14:58:09;6.00;;;1.02;;
59306;SDS011;47983;53.016;-2.260;2023-11-19T15:00:41;5.60;;;0.80;;
59306;SDS011;47983;53.016;-2.260;2023-11-19T15:03:09;3.80;;;0.70;;
59306;SDS011;47983;53.016;-2.260;2023-11-19T15:05:37;5.65;;;0.98;;
59306;SDS011;47983;53.016;-2.260;2023-11-19T15:08:05;5.88;;;0.80;;
59306;SDS011;47983;53.016;-2.260;2023-11-19T15:10:33;5.50;;;0.80;;
59306;SDS011;47983;53.016;-2.260;2023-11-19T15:13:01;4.65;;;0.60;;
59306;SDS011;47983;53.016;-2.260;2023-11-19T15:15:29;6.30;;;0.85;;
59306;SDS011;47983;53.016;-2.260;2023-11-19T15:18:00;2.50;;;0.50;;